createdAt,value
2023-01-10T00:01:30.949Z,77.71
2023-01-10T00:06:23.646Z,77.71
2023-01-10T00:11:28.644Z,77.60
2023-01-10T00:16:21.746Z,78.39
2023-01-10T00:21:15.913Z,78.14
2023-01-10T00:26:06.973Z,78.72
2023-01-10T00:31:06.753Z,79.65
2023-01-10T00:36:00.193Z,79.90
2023-01-10T00:40:50.739Z,79.85
2023-01-10T00:45:41.712Z,79.97
2023-01-10T00:50:34.273Z,79.13
2023-01-10T00:55:28.828Z,79.95
2023-01-10T01:00:22.590Z,80.47
2023-01-10T01:05:15.044Z,79.72
2023-01-10T01:10:24.864Z,80.18
2023-01-10T01:15:22.100Z,79.73
2023-01-10T01:20:17.919Z,79.08
2023-01-10T01:25:09.332Z,78.91
2023-01-10T01:30:02.304Z,78.60
2023-01-10T01:34:56.670Z,78.75
2023-01-10T01:39:47.037Z,78.64
2023-01-10T01:44:43.942Z,78.17
2023-01-10T01:49:36.036Z,78.12
2023-01-10T01:54:29.531Z,77.37
2023-01-10T01:59:22.496Z,77.99
2023-01-10T02:04:17.993Z,78.30
2023-01-10T02:09:22.122Z,77.98
2023-01-10T02:14:24.925Z,78.32
2023-01-10T02:19:21.086Z,79.03
2023-01-10T02:24:29.381Z,78.26
2023-01-10T02:29:44.607Z,78.91
2023-01-10T02:34:47.135Z,78.59
2023-01-10T02:39:48.040Z,78.06
2023-01-10T02:44:44.959Z,78.43
2023-01-10T02:49:49.822Z,78.22
2023-01-10T02:54:42.213Z,79.47
2023-01-10T02:59:52.609Z,78.37
2023-01-10T03:04:49.293Z,79.01
2023-01-10T03:09:49.183Z,78.98
2023-01-10T03:14:51.623Z,79.46
2023-01-10T03:19:46.815Z,79.05
2023-01-10T03:24:41.247Z,78.92
2023-01-10T03:29:40.571Z,79.16
2023-01-10T03:34:31.528Z,78.16
2023-01-10T03:39:27.149Z,78.74
2023-01-10T03:44:32.172Z,78.69
2023-01-10T03:49:26.865Z,78.65
2023-01-10T03:54:20.997Z,79.41
2023-01-10T03:59:19.111Z,78.91
2023-01-10T04:04:10.031Z,78.36
2023-01-10T04:09:03.307Z,79.93
2023-01-10T04:13:57.881Z,79.46
2023-01-10T04:18:54.514Z,79.72
2023-01-10T04:23:45.065Z,78.60
2023-01-10T04:28:39.056Z,78.86
2023-01-10T04:33:35.761Z,78.28
2023-01-10T04:38:26.828Z,78.60
2023-01-10T04:43:17.841Z,78.11
2023-01-10T04:48:16.353Z,77.96
2023-01-10T04:53:07.235Z,77.97
2023-01-10T04:58:00.975Z,77.59
2023-01-10T05:02:51.645Z,78.46
2023-01-10T05:07:50.594Z,77.51
2023-01-10T05:12:48.518Z,78.06
2023-01-10T05:17:43.367Z,79.18
2023-01-10T05:22:35.809Z,79.24
2023-01-10T05:27:40.436Z,78.86
2023-01-10T05:32:33.444Z,78.78
2023-01-10T05:37:29.051Z,79.22
2023-01-10T05:42:22.453Z,79.97
2023-01-10T05:47:16.661Z,78.86
2023-01-10T05:52:10.126Z,81.07
2023-01-10T05:57:00.822Z,80.57
2023-01-10T06:01:57.229Z,79.40
2023-01-10T06:06:51.730Z,79.39
2023-01-10T06:11:47.026Z,79.35
2023-01-10T06:16:43.122Z,80.26
2023-01-10T06:21:42.259Z,80.11
2023-01-10T06:26:39.907Z,79.11
2023-01-10T06:31:31.500Z,79.66
2023-01-10T06:36:24.486Z,79.98
2023-01-10T06:41:28.697Z,79.45
2023-01-10T06:46:28.909Z,80.48
2023-01-10T06:51:22.052Z,80.59
2023-01-10T06:56:15.764Z,80.13
2023-01-10T07:01:22.267Z,79.63
2023-01-10T07:06:33.077Z,80.11
2023-01-10T07:11:28.371Z,80.53
2023-01-10T07:16:20.984Z,79.95
2023-01-10T07:21:15.282Z,79.82
2023-01-10T07:26:13.605Z,79.86
2023-01-10T07:31:06.586Z,79.57
2023-01-10T07:35:57.478Z,79.24
2023-01-10T07:40:50.831Z,79.42
2023-01-10T07:50:52.042Z,79.64
2023-01-10T07:55:49.033Z,80.01
2023-01-10T08:00:41.945Z,80.12
2023-01-10T08:05:38.062Z,79.94
2023-01-10T08:10:32.743Z,79.40
2023-01-10T08:15:26.095Z,79.15
2023-01-10T08:20:30.310Z,78.89
2023-01-10T08:25:24.146Z,79.36
2023-01-10T08:30:26.569Z,78.99
2023-01-10T08:35:19.694Z,78.88
2023-01-10T08:40:13.792Z,79.57
2023-01-10T08:45:08.723Z,79.36
2023-01-10T08:50:00.309Z,79.59
2023-01-10T08:54:56.298Z,79.92
2023-01-10T08:59:47.010Z,79.94
2023-01-10T09:04:45.407Z,79.33
2023-01-10T09:09:37.455Z,79.55
2023-01-10T09:14:29.936Z,79.51
2023-01-10T09:19:21.817Z,79.39
2023-01-10T09:24:22.595Z,79.94
2023-01-10T09:29:16.956Z,80.17
2023-01-10T09:34:11.415Z,79.86
2023-01-10T09:39:04.230Z,80.00
2023-01-10T09:44:11.523Z,79.31
2023-01-10T09:49:08.248Z,79.16
2023-01-10T09:54:14.193Z,79.76
2023-01-10T09:59:13.089Z,79.71
2023-01-10T10:04:07.887Z,79.39
2023-01-10T10:09:04.936Z,79.35
2023-01-10T10:14:07.531Z,79.36
2023-01-10T10:19:18.404Z,79.97
2023-01-10T10:24:21.085Z,79.19
2023-01-10T10:29:32.586Z,79.21
2023-01-10T10:34:38.050Z,78.61
2023-01-10T10:39:39.643Z,78.38
2023-01-10T10:44:34.631Z,78.80
2023-01-10T10:49:41.764Z,78.63
2023-01-10T10:54:35.257Z,78.46
2023-01-10T10:59:28.385Z,78.94
2023-01-10T11:04:24.282Z,78.93
2023-01-10T11:09:24.282Z,78.62
2023-01-10T11:14:19.891Z,78.48
2023-01-10T11:19:28.652Z,78.84
2023-01-10T11:24:42.762Z,79.04
2023-01-10T11:29:45.449Z,79.07
2023-01-10T11:34:40.831Z,79.06
2023-01-10T11:39:41.059Z,78.38
2023-01-10T11:44:35.489Z,79.15
2023-01-10T11:49:52.899Z,79.23
2023-01-10T11:54:48.631Z,79.50
2023-01-10T11:59:43.026Z,79.40
2023-01-10T12:04:43.143Z,79.10
2023-01-10T12:09:40.569Z,79.06
2023-01-10T12:14:36.515Z,79.01
2023-01-10T12:19:28.959Z,78.86
2023-01-10T12:24:32.977Z,78.44
2023-01-10T12:29:33.153Z,78.86
2023-01-10T12:34:38.392Z,78.18
2023-01-10T12:39:33.780Z,78.22
2023-01-10T12:44:26.889Z,78.92
2023-01-10T12:49:21.822Z,78.81
2023-01-10T12:54:24.356Z,78.92
2023-01-10T12:59:32.569Z,78.71
2023-01-10T13:04:29.007Z,78.66
2023-01-10T13:09:27.000Z,78.55
2023-01-10T13:14:24.311Z,78.74
2023-01-10T13:19:29.396Z,79.00
2023-01-10T13:24:29.448Z,79.55
2023-01-10T13:29:24.348Z,79.14
2023-01-10T13:34:22.353Z,78.96
2023-01-10T13:39:31.136Z,79.66
2023-01-10T13:44:20.938Z,80.34
2023-01-10T13:49:27.243Z,80.17
2023-01-10T13:54:33.945Z,80.16
2023-01-10T13:59:54.306Z,80.15
2023-01-10T14:05:01.230Z,80.87
2023-01-10T14:09:59.978Z,80.80
2023-01-10T14:14:55.201Z,81.31
2023-01-10T14:19:54.192Z,82.02
2023-01-10T14:24:51.131Z,79.97
2023-01-10T14:29:54.127Z,80.87
2023-01-10T14:34:55.476Z,81.12
2023-01-10T14:39:49.737Z,81.10
2023-01-10T14:44:46.603Z,82.73
2023-01-10T14:49:53.380Z,82.31
2023-01-10T14:54:53.395Z,83.68
2023-01-10T14:59:51.178Z,83.77
2023-01-10T15:05:10.010Z,82.02
2023-01-10T15:10:04.496Z,84.62
2023-01-10T15:15:05.572Z,83.31
2023-01-10T15:19:59.283Z,84.51
2023-01-10T15:25:05.165Z,86.58
2023-01-10T15:29:56.042Z,84.93
2023-01-10T15:34:52.392Z,86.41
2023-01-10T15:39:46.408Z,86.00
2023-01-10T15:44:46.154Z,86.01
2023-01-10T15:49:37.432Z,86.99
2023-01-10T15:54:37.372Z,86.63
2023-01-10T15:59:34.363Z,85.96
2023-01-10T16:04:25.840Z,86.84
2023-01-10T16:09:26.968Z,87.74
2023-01-10T16:14:28.081Z,89.40
2023-01-10T16:19:22.767Z,86.72
2023-01-10T16:24:22.741Z,86.62
2023-01-10T16:29:22.662Z,87.22
2023-01-10T16:34:18.897Z,88.64
2023-01-10T16:39:17.105Z,88.17
2023-01-10T16:44:11.924Z,87.73
2023-01-10T16:49:09.383Z,87.46
2023-01-10T16:54:03.576Z,89.54
2023-01-10T16:58:58.801Z,88.22
2023-01-10T17:03:54.486Z,89.39
2023-01-10T17:08:50.857Z,89.30
2023-01-10T17:13:46.924Z,90.17
2023-01-10T17:18:48.198Z,89.53
2023-01-10T17:23:45.127Z,89.48
2023-01-10T17:28:42.167Z,90.13
2023-01-10T17:33:35.582Z,89.75
2023-01-10T17:38:26.865Z,88.44
2023-01-10T17:43:22.193Z,88.13
2023-01-10T17:48:26.259Z,89.21
2023-01-10T17:53:25.880Z,88.11
2023-01-10T17:58:23.539Z,88.88
2023-01-10T18:03:16.622Z,89.74
2023-01-10T18:08:09.143Z,89.68
2023-01-10T18:13:13.001Z,89.44
2023-01-10T18:18:10.495Z,90.06
2023-01-10T18:23:13.798Z,89.67
2023-01-10T18:28:07.491Z,89.89
2023-01-10T18:33:00.893Z,90.23
2023-01-10T18:37:56.285Z,89.01
2023-01-10T18:42:53.278Z,89.56
2023-01-10T18:47:46.439Z,89.60
2023-01-10T18:52:39.188Z,89.44
2023-01-10T18:57:34.859Z,90.17
2023-01-10T19:02:32.143Z,89.91
2023-01-10T19:07:34.083Z,89.45
2023-01-10T19:12:26.913Z,89.74
2023-01-10T19:17:20.124Z,100.00
2023-01-10T19:22:13.806Z,100.00
2023-01-10T19:27:13.099Z,100.00
2023-01-10T19:32:05.686Z,100.00
2023-01-10T19:37:01.486Z,100.00
2023-01-10T19:41:54.313Z,100.00
2023-01-10T19:47:07.850Z,100.00
2023-01-10T19:52:04.467Z,100.00
2023-01-10T19:57:01.883Z,100.00
2023-01-10T20:01:56.939Z,100.00
2023-01-10T20:06:57.955Z,100.00
2023-01-10T20:11:50.744Z,100.00
2023-01-10T20:16:45.220Z,100.00
2023-01-10T20:21:40.828Z,100.00
2023-01-10T20:26:36.167Z,100.00
2023-01-10T20:31:32.173Z,100.00
2023-01-10T20:36:26.742Z,100.00
2023-01-10T20:41:25.516Z,100.00
2023-01-10T20:46:26.901Z,100.00
2023-01-10T20:51:21.370Z,100.00
2023-01-10T20:56:20.005Z,100.00
2023-01-10T21:01:32.597Z,100.00
2023-01-10T21:06:26.107Z,100.00
2023-01-10T21:11:24.086Z,100.00
2023-01-10T21:16:24.594Z,100.00
2023-01-10T21:21:23.122Z,100.00
2023-01-10T21:26:19.567Z,100.00
2023-01-10T21:31:13.222Z,100.00
2023-01-10T21:36:11.013Z,100.00
2023-01-10T21:41:13.828Z,100.00
2023-01-10T21:46:15.549Z,100.00
2023-01-10T21:51:14.001Z,100.00
2023-01-10T21:56:07.965Z,100.00
2023-01-10T22:01:02.026Z,100.00
2023-01-10T22:06:01.531Z,100.00
2023-01-10T22:10:55.797Z,100.00
2023-01-10T22:15:51.564Z,100.00
2023-01-10T22:20:45.441Z,100.00
2023-01-10T22:25:36.531Z,100.00
2023-01-10T22:30:33.383Z,100.00
2023-01-10T22:35:28.727Z,100.00
2023-01-10T22:40:22.033Z,100.00
2023-01-10T22:45:13.903Z,100.00
2023-01-10T22:50:12.975Z,100.00
2023-01-10T22:55:04.428Z,100.00
2023-01-10T22:59:58.678Z,100.00
2023-01-10T23:04:49.794Z,100.00
2023-01-10T23:09:44.320Z,100.00
2023-01-10T23:14:39.011Z,100.00
2023-01-10T23:19:30.844Z,100.00
2023-01-10T23:24:27.002Z,100.00
2023-01-10T23:29:23.844Z,100.00
2023-01-10T23:34:17.691Z,100.00
2023-01-10T23:39:19.870Z,100.00
2023-01-10T23:44:10.819Z,100.00
2023-01-10T23:49:12.090Z,100.00
2023-01-10T23:54:20.400Z,100.00
2023-01-10T23:59:15.015Z,100.00
